Time,TemperatureF,DewpointF,PressureIn,WindDirection,WindDirectionDegrees,WindSpeedMPH,WindSpeedGustMPH,Humidity,HourlyPrecipIn,Conditions,Clouds,dailyrainin,SoftwareType,DateUTC
2013-11-22 00:09:00,73.3,69.0,29.92,NNE,17,2.0,3.0,87,0.00,,,0.00,weatherlink.com 1.10,2013-11-22 07:09:00,
2013-11-22 00:24:00,73.5,69.0,29.92,North,7,2.0,6.0,86,0.00,,,0.00,weatherlink.com 1.10,2013-11-22 07:24:00,
2013-11-22 00:39:00,72.9,69.0,29.92,NNE,20,2.0,3.0,87,0.00,,,0.00,weatherlink.com 1.10,2013-11-22 07:39:00,
2013-11-22 00:54:00,72.6,69.0,29.92,North,7,1.0,3.0,87,0.00,,,0.00,weatherlink.com 1.10,2013-11-22 07:54:00,
2013-11-22 01:09:00,72.4,69.0,29.92,NNE,14,1.0,3.0,88,0.00,,,0.00,weatherlink.com 1.10,2013-11-22 08:09:00,
2013-11-22 01:24:00,72.2,69.0,29.92,NNE,31,1.0,2.0,88,0.00,,,0.00,weatherlink.com 1.10,2013-11-22 08:24:00,
2013-11-22 01:39:00,72.0,69.0,29.92,NNE,15,1.0,2.0,89,0.00,,,0.00,weatherlink.com 1.10,2013-11-22 08:39:00,
2013-11-22 01:54:00,72.3,69.0,29.92,North,356,1.0,2.0,88,0.00,,,0.00,weatherlink.com 1.10,2013-11-22 08:54:00,
2013-11-22 02:09:00,72.2,69.0,29.91,NNE,17,1.0,3.0,88,0.00,,,0.00,weatherlink.com 1.10,2013-11-22 09:09:00,
2013-11-22 02:24:00,71.5,68.0,29.92,NE,35,1.0,4.0,89,0.00,,,0.00,weatherlink.com 1.10,2013-11-22 09:24:00,
2013-11-22 02:39:00,71.4,68.0,29.91,NNE,30,2.0,4.0,89,0.00,,,0.00,weatherlink.com 1.10,2013-11-22 09:39:00,
2013-11-22 02:54:00,71.2,68.0,29.91,NE,34,2.0,3.0,90,0.00,,,0.00,weatherlink.com 1.10,2013-11-22 09:54:00,
2013-11-22 03:09:00,71.2,68.0,29.91,NNE,27,1.0,2.0,89,0.00,,,0.00,weatherlink.com 1.10,2013-11-22 10:09:00,
2013-11-22 03:24:00,71.3,68.0,29.91,NNE,22,1.0,3.0,90,0.00,,,0.00,weatherlink.com 1.10,2013-11-22 10:24:00,
2013-11-22 03:39:00,71.5,69.0,29.91,NNE,21,2.0,2.0,90,0.00,,,0.00,weatherlink.com 1.10,2013-11-22 10:39:00,
2013-11-22 03:54:00,71.6,69.0,29.91,NNE,31,0.0,1.0,90,0.00,,,0.00,weatherlink.com 1.10,2013-11-22 10:54:00,
2013-11-22 04:09:00,72.9,70.0,29.91,WNW,303,1.0,2.0,91,0.00,,,0.00,weatherlink.com 1.10,2013-11-22 11:09:00,
2013-11-22 04:24:00,71.8,69.0,29.92,NNW,327,0.0,1.0,89,0.00,,,0.00,weatherlink.com 1.10,2013-11-22 11:24:00,
2013-11-22 04:39:00,71.8,69.0,29.92,NNE,21,1.0,2.0,90,0.00,,,0.00,weatherlink.com 1.10,2013-11-22 11:39:00,
2013-11-22 04:54:00,71.6,69.0,29.92,NNE,25,1.0,2.0,90,0.00,,,0.00,weatherlink.com 1.10,2013-11-22 11:54:00,
2013-11-22 05:09:00,71.4,68.0,29.93,NNE,28,1.0,2.0,90,0.00,,,0.00,weatherlink.com 1.10,2013-11-22 12:09:00,
2013-11-22 05:24:00,71.3,69.0,29.93,NE,37,2.0,2.0,91,0.00,,,0.00,weatherlink.com 1.10,2013-11-22 12:24:00,
2013-11-22 05:39:00,71.4,69.0,29.94,NE,39,2.0,3.0,92,0.00,,,0.00,weatherlink.com 1.10,2013-11-22 12:39:00,
2013-11-22 05:54:00,71.7,69.0,29.94,NE,37,2.0,3.0,92,0.00,,,0.00,weatherlink.com 1.10,2013-11-22 12:54:00,
2013-11-22 06:09:00,71.6,69.0,29.94,NE,50,1.0,3.0,92,0.00,,,0.00,weatherlink.com 1.10,2013-11-22 13:09:00,
2013-11-22 06:24:00,71.7,69.0,29.95,ENE,57,1.0,3.0,92,0.00,,,0.00,weatherlink.com 1.10,2013-11-22 13:24:00,
2013-11-22 06:39:00,71.6,69.0,29.95,NNE,33,2.0,3.0,92,0.00,,,0.00,weatherlink.com 1.10,2013-11-22 13:39:00,
2013-11-22 06:54:00,71.8,69.0,29.95,NE,34,2.0,2.0,92,0.00,,,0.00,weatherlink.com 1.10,2013-11-22 13:54:00,
2013-11-22 07:09:00,72.3,70.0,29.96,NE,40,1.0,2.0,91,0.00,,,0.00,weatherlink.com 1.10,2013-11-22 14:09:00,
2013-11-22 07:24:00,72.9,70.0,29.97,ENE,69,1.0,2.0,91,0.00,,,0.00,weatherlink.com 1.10,2013-11-22 14:24:00,
2013-11-22 07:39:00,74.5,72.0,29.97,NE,55,0.0,1.0,91,0.00,,,0.00,weatherlink.com 1.10,2013-11-22 14:39:00,
2013-11-22 07:54:00,75.4,72.0,29.98,ENE,66,1.0,2.0,88,0.00,,,0.00,weatherlink.com 1.10,2013-11-22 14:54:00,
2013-11-22 08:09:00,76.6,72.0,29.98,ENE,71,2.0,3.0,85,0.00,,,0.00,weatherlink.com 1.10,2013-11-22 15:09:00,
2013-11-22 08:24:00,78.1,73.0,29.98,NNW,339,0.0,2.0,83,0.00,,,0.00,weatherlink.com 1.10,2013-11-22 15:24:00,
2013-11-22 08:39:00,79.4,72.0,29.99,SSE,147,2.0,2.0,79,0.00,,,0.00,weatherlink.com 1.10,2013-11-22 15:39:00,
2013-11-22 08:54:00,80.8,72.0,29.99,ESE,105,1.0,3.0,75,0.00,,,0.00,weatherlink.com 1.10,2013-11-22 15:54:00,
2013-11-22 09:10:00,80.9,72.0,29.99,South,185,2.0,3.0,73,0.00,,,0.00,weatherlink.com 1.10,2013-11-22 16:10:00,
2013-11-22 09:25:00,81.2,72.0,29.98,SW,218,0.0,2.0,74,0.00,,,0.00,weatherlink.com 1.10,2013-11-22 16:25:00,
2013-11-22 09:40:00,80.9,72.0,29.98,SSW,206,3.0,4.0,75,0.00,,,0.00,weatherlink.com 1.10,2013-11-22 16:40:00,
2013-11-22 09:55:00,81.6,73.0,29.98,WSW,239,0.0,4.0,75,0.00,,,0.00,weatherlink.com 1.10,2013-11-22 16:55:00,
2013-11-22 10:10:00,81.4,73.0,29.98,SSW,206,4.0,6.0,76,0.00,,,0.00,weatherlink.com 1.10,2013-11-22 17:10:00,
2013-11-22 10:25:00,81.5,73.0,29.97,SW,220,1.0,4.0,75,0.00,,,0.00,weatherlink.com 1.10,2013-11-22 17:25:00,
2013-11-22 10:40:00,83.4,74.0,29.97,WNW,284,3.0,4.0,72,0.00,,,0.00,weatherlink.com 1.10,2013-11-22 17:40:00,
2013-11-22 10:55:00,82.5,73.0,29.96,SSW,205,4.0,5.0,74,0.00,,,0.00,weatherlink.com 1.10,2013-11-22 17:55:00,
2013-11-22 11:10:00,82.0,73.0,29.96,SW,220,4.0,9.0,75,0.00,,,0.00,weatherlink.com 1.10,2013-11-22 18:10:00,
2013-11-22 11:25:00,81.8,74.0,29.96,SSW,212,7.0,10.0,76,0.00,,,0.00,weatherlink.com 1.10,2013-11-22 18:25:00,
2013-11-22 11:40:00,81.8,74.0,29.95,South,189,10.0,11.0,77,0.00,,,0.00,weatherlink.com 1.10,2013-11-22 18:40:00,
2013-11-22 11:55:00,81.7,74.0,29.94,SSW,204,11.0,13.0,78,0.00,,,0.00,weatherlink.com 1.10,2013-11-22 18:55:00,
2013-11-22 12:10:00,81.9,75.0,29.94,South,189,10.0,14.0,79,0.00,,,0.00,weatherlink.com 1.10,2013-11-22 19:10:00,
2013-11-22 12:25:00,82.1,75.0,29.93,SW,215,10.0,13.0,79,0.00,,,0.00,weatherlink.com 1.10,2013-11-22 19:25:00,
2013-11-22 12:40:00,82.2,76.0,29.92,SSW,198,12.0,13.0,80,0.00,,,0.00,weatherlink.com 1.10,2013-11-22 19:40:00,
2013-11-22 12:55:00,82.5,75.0,29.92,SSW,199,10.0,13.0,78,0.00,,,0.00,weatherlink.com 1.10,2013-11-22 19:55:00,
2013-11-22 13:10:00,83.1,75.0,29.91,West,277,1.0,13.0,77,0.00,,,0.00,weatherlink.com 1.10,2013-11-22 20:10:00,
2013-11-22 13:25:00,83.0,75.0,29.90,SSW,208,5.0,12.0,77,0.00,,,0.00,weatherlink.com 1.10,2013-11-22 20:25:00,
2013-11-22 13:40:00,83.4,75.0,29.90,WSW,244,7.0,12.0,76,0.00,,,0.00,weatherlink.com 1.10,2013-11-22 20:40:00,
2013-11-22 13:55:00,83.7,75.0,29.90,WSW,249,6.0,13.0,75,0.00,,,0.00,weatherlink.com 1.10,2013-11-22 20:55:00,
2013-11-22 14:25:00,83.4,75.0,29.89,WNW,303,9.0,12.0,75,0.00,,,0.00,weatherlink.com 1.10,2013-11-22 21:25:00,
2013-11-22 14:40:00,83.4,76.0,29.89,WNW,300,11.0,14.0,77,0.00,,,0.00,weatherlink.com 1.10,2013-11-22 21:40:00,
2013-11-22 14:55:00,83.0,76.0,29.89,WNW,289,6.0,13.0,78,0.00,,,0.00,weatherlink.com 1.10,2013-11-22 21:55:00,
2013-11-22 15:10:00,83.0,76.0,29.90,WNW,294,10.0,13.0,78,0.00,,,0.00,weatherlink.com 1.10,2013-11-22 22:10:00,
2013-11-22 15:25:00,83.0,75.0,29.89,WNW,298,9.0,12.0,77,0.00,,,0.00,weatherlink.com 1.10,2013-11-22 22:25:00,
2013-11-22 15:55:00,82.7,74.0,29.89,NW,313,8.0,11.0,75,0.00,,,0.00,weatherlink.com 1.10,2013-11-22 22:55:00,
2013-11-22 16:10:00,83.1,75.0,29.89,NW,306,7.0,11.0,77,0.00,,,0.00,weatherlink.com 1.10,2013-11-22 23:10:00,
2013-11-22 16:25:00,82.7,74.0,29.89,WNW,298,8.0,13.0,75,0.00,,,0.00,weatherlink.com 1.10,2013-11-22 23:25:00,
2013-11-22 16:40:00,82.1,75.0,29.89,NW,313,12.0,14.0,78,0.00,,,0.00,weatherlink.com 1.10,2013-11-22 23:40:00,
2013-11-22 16:55:00,81.8,75.0,29.89,NW,325,10.0,14.0,80,0.00,,,0.00,weatherlink.com 1.10,2013-11-22 23:55:00,
2013-11-22 17:10:00,81.4,75.0,29.89,NW,313,10.0,16.0,80,0.00,,,0.00,weatherlink.com 1.10,2013-11-23 00:10:00,
2013-11-22 17:25:00,81.0,75.0,29.89,NW,319,14.0,16.0,81,0.00,,,0.00,weatherlink.com 1.10,2013-11-23 00:25:00,
2013-11-22 17:40:00,80.7,74.0,29.90,NW,320,9.0,17.0,79,0.00,,,0.00,weatherlink.com 1.10,2013-11-23 00:40:00,
2013-11-22 17:55:00,80.5,73.0,29.90,NW,317,6.0,15.0,79,0.00,,,0.00,weatherlink.com 1.10,2013-11-23 00:55:00,
2013-11-22 18:10:00,80.5,73.0,29.89,NW,318,8.0,18.0,79,0.00,,,0.00,weatherlink.com 1.10,2013-11-23 01:10:00,
2013-11-22 18:25:00,80.4,74.0,29.90,NNW,327,13.0,17.0,80,0.00,,,0.00,weatherlink.com 1.10,2013-11-23 01:25:00,
2013-11-22 18:40:00,80.1,73.0,29.90,NNW,335,11.0,16.0,80,0.00,,,0.00,weatherlink.com 1.10,2013-11-23 01:40:00,
2013-11-22 18:55:00,79.8,73.0,29.90,NW,325,11.0,15.0,80,0.00,,,0.00,weatherlink.com 1.10,2013-11-23 01:55:00,
2013-11-22 19:10:00,79.4,73.0,29.91,NNW,341,7.0,14.0,80,0.00,,,0.00,weatherlink.com 1.10,2013-11-23 02:10:00,
2013-11-22 19:25:00,79.2,73.0,29.91,NW,323,8.0,12.0,80,0.00,,,0.00,weatherlink.com 1.10,2013-11-23 02:25:00,
2013-11-22 19:40:00,79.2,73.0,29.91,NW,323,7.0,13.0,81,0.00,,,0.00,weatherlink.com 1.10,2013-11-23 02:40:00,
2013-11-22 19:55:00,79.0,72.0,29.91,NNW,329,7.0,13.0,79,0.00,,,0.00,weatherlink.com 1.10,2013-11-23 02:55:00,
2013-11-22 20:10:00,78.9,71.0,29.92,NNW,342,8.0,12.0,77,0.00,,,0.00,weatherlink.com 1.10,2013-11-23 03:10:00,
2013-11-22 20:25:00,78.8,71.0,29.92,NNW,327,6.0,10.0,77,0.00,,,0.00,weatherlink.com 1.10,2013-11-23 03:25:00,
2013-11-22 20:40:00,78.6,70.0,29.92,NNW,329,4.0,8.0,76,0.00,,,0.00,weatherlink.com 1.10,2013-11-23 03:40:00,
2013-11-22 20:55:00,78.3,69.0,29.92,NNW,342,2.0,6.0,74,0.00,,,0.00,weatherlink.com 1.10,2013-11-23 03:55:00,
2013-11-22 21:10:00,78.2,70.0,29.92,NW,307,3.0,8.0,75,0.00,,,0.00,weatherlink.com 1.10,2013-11-23 04:10:00,
2013-11-22 21:25:00,78.4,70.0,29.92,NW,320,5.0,8.0,75,0.00,,,0.00,weatherlink.com 1.10,2013-11-23 04:25:00,
2013-11-22 21:40:00,78.4,70.0,29.92,NNW,348,7.0,10.0,74,0.00,,,0.00,weatherlink.com 1.10,2013-11-23 04:40:00,
2013-11-22 21:55:00,77.5,69.0,29.92,NE,45,0.0,3.0,76,0.00,,,0.00,weatherlink.com 1.10,2013-11-23 04:55:00,
2013-11-22 22:10:00,76.0,69.0,29.93,NNE,19,1.0,3.0,78,0.00,,,0.00,weatherlink.com 1.10,2013-11-23 05:10:00,
2013-11-22 22:25:00,75.8,69.0,29.93,NNW,332,1.0,3.0,80,0.00,,,0.00,weatherlink.com 1.10,2013-11-23 05:25:00,
2013-11-22 22:40:00,75.8,69.0,29.93,NNE,15,2.0,2.0,79,0.00,,,0.00,weatherlink.com 1.10,2013-11-23 05:40:00,
2013-11-22 22:55:00,75.4,69.0,29.93,North,353,1.0,3.0,80,0.00,,,0.00,weatherlink.com 1.10,2013-11-23 05:55:00,
2013-11-22 23:10:00,76.5,70.0,29.93,NW,310,0.0,6.0,80,0.00,,,0.00,weatherlink.com 1.10,2013-11-23 06:10:00,
2013-11-22 23:25:00,76.8,70.0,29.92,NW,317,2.0,4.0,79,0.00,,,0.00,weatherlink.com 1.10,2013-11-23 06:25:00,
2013-11-22 23:40:00,75.4,69.0,29.92,NNE,18,2.0,2.0,80,0.00,,,0.00,weatherlink.com 1.10,2013-11-23 06:40:00,
2013-11-22 23:55:00,74.4,69.0,29.91,NNE,33,2.0,3.0,84,0.00,,,0.00,weatherlink.com 1.10,2013-11-23 06:55:00,